Time;durP1;ratioP1;P1;durP2;ratioP2;P2;SDS_P1;SDS_P2;PMS_P1;PMS_P2;Temp;Humidity;BMP_temperature;BMP_pressure;BME280_temperature;BME280_humidity;BME280_pressure;Samples;Min_cycle;Max_cycle;Signal;HPM_P1;HPM_P2
2023/03/21 00:01:09;;;;;;;7.60;5.95;;;;;;;;;;5027676;28;20756;-70
2023/03/21 00:03:35;;;;;;;8.43;6.40;;;;;;;;;;5018466;28;20037;-67
2023/03/21 00:06:04;;;;;;;8.43;5.60;;;;;;;;;;5016700;28;20472;-70
2023/03/21 00:08:30;;;;;;;9.93;6.43;;;;;;;;;;5052550;28;20328;-71
2023/03/21 00:10:59;;;;;;;8.77;6.15;;;;;;;;;;5017440;28;20337;-67
2023/03/21 00:13:25;;;;;;;8.50;6.03;;;;;;;;;;5039268;28;20028;-70
2023/03/21 00:15:53;;;;;;;7.82;6.18;;;;;;;;;;5025527;28;20143;-69
2023/03/21 00:18:21;;;;;;;8.77;6.50;;;;;;;;;;5018610;28;20029;-65
2023/03/21 00:20:57;;;;;;;8.02;5.60;;;;;;;;;;5034339;28;20072;-67
2023/03/21 00:23:23;;;;;;;9.52;6.22;;;;;;;;;;5010286;28;20143;-68
2023/03/21 00:25:48;;;;;;;7.03;5.75;;;;;;;;;;5023593;28;20124;-69
2023/03/21 00:28:13;;;;;;;8.07;6.07;;;;;;;;;;5020847;28;20033;-69
2023/03/21 00:30:40;;;;;;;9.98;6.38;;;;;;;;;;5003531;28;20288;-67
2023/03/21 00:33:05;;;;;;;8.67;6.07;;;;;;;;;;5021522;28;20040;-66
2023/03/21 00:35:31;;;;;;;9.07;5.80;;;;;;;;;;5041748;28;20292;-70
2023/03/21 00:37:56;;;;;;;9.18;6.07;;;;;;;;;;5033991;28;20474;-68
2023/03/21 00:40:21;;;;;;;8.30;6.03;;;;;;;;;;5027821;28;20040;-66
2023/03/21 00:42:46;;;;;;;7.47;5.37;;;;;;;;;;5049503;28;20279;-64
2023/03/21 00:45:12;;;;;;;7.93;5.97;;;;;;;;;;5033194;28;20287;-63
2023/03/21 00:47:37;;;;;;;8.45;6.50;;;;;;;;;;5047055;28;20275;-68
2023/03/21 00:50:03;;;;;;;7.53;5.63;;;;;;;;;;5016608;28;20037;-67
2023/03/21 00:52:29;;;;;;;7.85;5.82;;;;;;;;;;5034648;28;20284;-63
2023/03/21 00:54:54;;;;;;;8.20;5.93;;;;;;;;;;5029106;28;20064;-68
2023/03/21 00:57:19;;;;;;;8.20;6.07;;;;;;;;;;5020859;28;20492;-69
2023/03/21 00:59:44;;;;;;;8.13;5.68;;;;;;;;;;5028199;28;20033;-67
2023/03/21 01:02:13;;;;;;;8.37;6.40;;;;;;;;;;5027064;28;20620;-62
2023/03/21 01:04:38;;;;;;;7.97;5.97;;;;;;;;;;5031694;28;20306;-71
2023/03/21 01:07:03;;;;;;;8.20;5.97;;;;;;;;;;5035002;28;20057;-63
2023/03/21 01:09:29;;;;;;;8.40;6.10;;;;;;;;;;5032548;28;20275;-65
2023/03/21 01:11:54;;;;;;;6.87;5.73;;;;;;;;;;5036179;28;20274;-70
2023/03/21 01:14:20;;;;;;;8.43;5.82;;;;;;;;;;5035463;28;20155;-70
2023/03/21 01:16:45;;;;;;;8.15;5.72;;;;;;;;;;5019207;28;20384;-67
2023/03/21 01:19:11;;;;;;;7.57;5.72;;;;;;;;;;5008905;28;20086;-65
2023/03/21 01:21:37;;;;;;;8.25;5.80;;;;;;;;;;5018913;28;20031;-66
2023/03/21 01:24:02;;;;;;;7.57;5.83;;;;;;;;;;5029672;28;20101;-69
2023/03/21 01:26:27;;;;;;;8.70;5.93;;;;;;;;;;4985585;28;20402;-67
2023/03/21 01:28:52;;;;;;;9.33;6.27;;;;;;;;;;4988490;28;20299;-64
2023/03/21 01:31:18;;;;;;;8.93;6.10;;;;;;;;;;5014386;28;20716;-70
2023/03/21 01:33:43;;;;;;;7.47;5.65;;;;;;;;;;5037762;28;20732;-63
2023/03/21 01:36:12;;;;;;;7.45;5.90;;;;;;;;;;5022660;28;20418;-70
2023/03/21 01:38:37;;;;;;;8.40;6.22;;;;;;;;;;5016229;28;20065;-67
2023/03/21 01:41:03;;;;;;;7.40;5.70;;;;;;;;;;5040150;28;20063;-67
2023/03/21 01:43:29;;;;;;;8.30;5.78;;;;;;;;;;5019834;28;20044;-70
2023/03/21 01:46:19;;;;;;;7.80;5.80;;;;;;;;;;5042147;28;20135;-66
2023/03/21 01:48:45;;;;;;;8.52;5.72;;;;;;;;;;5015915;28;20033;-68
2023/03/21 01:51:10;;;;;;;7.60;5.68;;;;;;;;;;5019785;28;20028;-68
2023/03/21 01:53:36;;;;;;;7.43;5.50;;;;;;;;;;5037096;28;20013;-71
2023/03/21 01:56:16;;;;;;;9.25;5.75;;;;;;;;;;5013400;28;20452;-70
2023/03/21 01:58:41;;;;;;;8.25;5.95;;;;;;;;;;5028294;28;20048;-68
2023/03/21 02:01:07;;;;;;;8.75;5.55;;;;;;;;;;5036457;28;20061;-70
2023/03/21 02:03:36;;;;;;;7.45;5.30;;;;;;;;;;5013101;28;20615;-67
2023/03/21 02:06:02;;;;;;;8.15;5.82;;;;;;;;;;5003689;28;20503;-67
2023/03/21 02:08:28;;;;;;;8.48;6.07;;;;;;;;;;5039540;28;20116;-70
2023/03/21 02:10:53;;;;;;;7.65;5.78;;;;;;;;;;5034956;28;20420;-64
2023/03/21 02:13:18;;;;;;;7.43;5.88;;;;;;;;;;5019602;28;20039;-68
2023/03/21 02:15:51;;;;;;;8.10;5.95;;;;;;;;;;5036443;28;20045;-67
2023/03/21 02:18:20;;;;;;;8.32;5.80;;;;;;;;;;5034365;28;20045;-70
2023/03/21 02:20:58;;;;;;;7.88;5.80;;;;;;;;;;5018884;28;20025;-70
2023/03/21 02:23:26;;;;;;;8.38;5.35;;;;;;;;;;4974790;28;20063;-65
2023/03/21 02:26:00;;;;;;;7.18;5.70;;;;;;;;;;4970161;28;20044;-66
2023/03/21 02:28:45;;;;;;;8.35;5.80;;;;;;;;;;4970399;28;20044;-63
2023/03/21 02:31:27;;;;;;;7.20;5.45;;;;;;;;;;4956263;28;20041;-66
2023/03/21 02:33:58;;;;;;;7.80;5.70;;;;;;;;;;4974799;28;20049;-64
2023/03/21 02:36:25;;;;;;;7.40;5.50;;;;;;;;;;4975456;28;20040;-68
2023/03/21 02:39:11;;;;;;;7.70;5.60;;;;;;;;;;4975058;28;20048;-65
2023/03/21 02:41:55;;;;;;;8.30;5.75;;;;;;;;;;4955739;28;20041;-64
2023/03/21 02:44:22;;;;;;;7.10;5.50;;;;;;;;;;4971374;28;20045;-63
2023/03/21 02:46:51;;;;;;;7.78;5.65;;;;;;;;;;4957150;28;20025;-64
2023/03/21 02:49:19;;;;;;;7.20;5.57;;;;;;;;;;4968556;28;21369;-66
2023/03/21 02:51:45;;;;;;;7.88;5.70;;;;;;;;;;4957029;28;20310;-66
2023/03/21 02:54:14;;;;;;;7.55;5.35;;;;;;;;;;4971717;28;20072;-68
2023/03/21 02:56:40;;;;;;;7.13;5.82;;;;;;;;;;4974343;28;21718;-65
2023/03/21 02:59:05;;;;;;;8.27;6.00;;;;;;;;;;4975530;28;20137;-67
2023/03/21 03:01:31;;;;;;;7.75;5.68;;;;;;;;;;4938346;28;20060;-66
2023/03/21 03:03:56;;;;;;;7.15;5.45;;;;;;;;;;4971417;28;20045;-67
2023/03/21 03:06:22;;;;;;;7.00;5.22;;;;;;;;;;4972636;28;20166;-67
2023/03/21 03:08:48;;;;;;;8.07;5.53;;;;;;;;;;4972646;28;22142;-67
2023/03/21 03:11:39;;;;;;;7.20;5.47;;;;;;;;;;4970930;28;20150;-62
2023/03/21 03:14:38;;;;;;;7.75;5.38;;;;;;;;;;4967544;28;20533;-66
2023/03/21 03:17:04;;;;;;;7.80;5.77;;;;;;;;;;4935722;28;20041;-63
2023/03/21 03:19:31;;;;;;;7.15;5.38;;;;;;;;;;4968830;28;20465;-66
2023/03/21 03:22:06;;;;;;;7.65;5.60;;;;;;;;;;4969882;28;20136;-66
2023/03/21 03:24:41;;;;;;;8.45;5.88;;;;;;;;;;4963671;28;20056;-68
2023/03/21 03:27:08;;;;;;;8.10;5.47;;;;;;;;;;4963591;28;20045;-66
2023/03/21 03:29:33;;;;;;;6.90;5.60;;;;;;;;;;4935162;28;20060;-65
2023/03/21 03:32:01;;;;;;;8.30;5.68;;;;;;;;;;4951362;28;20087;-67
2023/03/21 03:34:28;;;;;;;7.03;5.22;;;;;;;;;;4963777;28;20080;-62
2023/03/21 03:36:55;;;;;;;7.13;5.28;;;;;;;;;;4962752;28;20132;-66
2023/03/21 03:39:21;;;;;;;6.93;5.40;;;;;;;;;;4947255;28;20055;-66
2023/03/21 03:41:46;;;;;;;6.95;5.70;;;;;;;;;;4948782;28;20037;-63
2023/03/21 03:44:12;;;;;;;7.53;5.70;;;;;;;;;;4965073;28;22029;-67
2023/03/21 03:46:48;;;;;;;8.05;5.60;;;;;;;;;;4949194;28;20033;-67
2023/03/21 03:49:14;;;;;;;8.20;5.90;;;;;;;;;;4960463;28;20638;-62
2023/03/21 03:51:46;;;;;;;7.40;5.60;;;;;;;;;;4965277;28;22872;-65
2023/03/21 03:54:12;;;;;;;7.40;5.55;;;;;;;;;;4967895;28;20095;-65
2023/03/21 03:56:37;;;;;;;7.10;5.70;;;;;;;;;;4946344;28;20079;-65
2023/03/21 03:59:03;;;;;;;7.07;5.53;;;;;;;;;;4949716;28;20032;-65
2023/03/21 04:01:28;;;;;;;8.40;5.78;;;;;;;;;;4960824;28;20468;-62
2023/03/21 04:03:54;;;;;;;7.22;5.50;;;;;;;;;;4949612;28;20025;-64
2023/03/21 04:06:20;;;;;;;6.55;5.38;;;;;;;;;;4951851;28;21949;-67
2023/03/21 04:08:46;;;;;;;8.20;6.00;;;;;;;;;;4970274;28;20051;-65
2023/03/21 04:11:15;;;;;;;6.80;5.60;;;;;;;;;;4969572;28;20465;-64
2023/03/21 04:13:40;;;;;;;7.30;5.55;;;;;;;;;;4970042;28;20301;-61
2023/03/21 04:16:05;;;;;;;7.43;5.82;;;;;;;;;;4970685;28;21280;-65
2023/03/21 04:18:31;;;;;;;6.97;5.63;;;;;;;;;;4970409;28;20864;-63
2023/03/21 04:20:56;;;;;;;6.88;5.00;;;;;;;;;;4968787;28;21541;-67
2023/03/21 04:23:22;;;;;;;8.60;5.97;;;;;;;;;;4961038;28;20021;-65
2023/03/21 04:25:47;;;;;;;7.07;5.45;;;;;;;;;;4967902;28;20790;-64
2023/03/21 04:28:12;;;;;;;8.20;5.43;;;;;;;;;;4968978;28;20029;-64
2023/03/21 04:30:38;;;;;;;7.00;5.43;;;;;;;;;;4972448;28;20041;-65
2023/03/21 04:33:03;;;;;;;6.82;5.60;;;;;;;;;;4971014;28;21108;-67
2023/03/21 04:35:28;;;;;;;6.75;5.50;;;;;;;;;;4968816;28;20468;-65
2023/03/21 04:37:54;;;;;;;7.05;5.45;;;;;;;;;;4970831;28;20037;-67
2023/03/21 04:40:19;;;;;;;7.07;5.45;;;;;;;;;;4969896;28;21810;-65
2023/03/21 04:42:45;;;;;;;7.80;5.63;;;;;;;;;;4970146;28;20162;-65
2023/03/21 04:45:10;;;;;;;6.88;5.57;;;;;;;;;;4967445;28;20353;-67
2023/03/21 04:47:36;;;;;;;6.63;5.20;;;;;;;;;;4970720;28;20554;-64
2023/03/21 04:50:01;;;;;;;7.70;5.57;;;;;;;;;;4969603;28;20025;-64
2023/03/21 04:52:26;;;;;;;6.70;5.18;;;;;;;;;;4950457;28;20149;-65
2023/03/21 04:54:52;;;;;;;6.72;5.38;;;;;;;;;;4968624;28;20517;-68
2023/03/21 04:57:17;;;;;;;6.43;5.13;;;;;;;;;;4950846;28;20028;-65
2023/03/21 04:59:42;;;;;;;6.63;4.95;;;;;;;;;;4964516;28;20322;-65
2023/03/21 05:02:07;;;;;;;7.90;5.77;;;;;;;;;;4960704;28;20109;-69
2023/03/21 05:04:32;;;;;;;6.03;4.93;;;;;;;;;;4959118;28;20413;-66
2023/03/21 05:06:58;;;;;;;7.00;4.83;;;;;;;;;;4944490;28;20287;-66
2023/03/21 05:09:23;;;;;;;7.97;5.23;;;;;;;;;;4963670;28;21502;-67
2023/03/21 05:11:49;;;;;;;7.15;5.07;;;;;;;;;;4970151;28;20314;-66
2023/03/21 05:14:18;;;;;;;8.25;5.60;;;;;;;;;;4973234;28;20725;-65
2023/03/21 05:16:53;;;;;;;7.47;5.30;;;;;;;;;;4961528;28;20944;-67
2023/03/21 05:19:22;;;;;;;6.82;4.93;;;;;;;;;;4976024;28;20053;-65
2023/03/21 05:21:48;;;;;;;7.93;4.72;;;;;;;;;;4974089;28;20076;-64
2023/03/21 05:24:16;;;;;;;7.05;5.13;;;;;;;;;;4953613;28;20182;-64
2023/03/21 05:26:42;;;;;;;8.07;4.65;;;;;;;;;;4969223;28;20033;-65
2023/03/21 05:29:07;;;;;;;8.60;5.22;;;;;;;;;;4974470;28;20148;-68
2023/03/21 05:31:33;;;;;;;7.68;5.07;;;;;;;;;;4974487;28;20091;-68
2023/03/21 05:33:58;;;;;;;6.43;4.85;;;;;;;;;;4956188;28;20045;-65
2023/03/21 05:36:23;;;;;;;6.37;4.63;;;;;;;;;;4974745;28;20048;-62
2023/03/21 05:38:48;;;;;;;7.03;5.17;;;;;;;;;;4956900;28;20279;-65
2023/03/21 05:41:14;;;;;;;9.07;4.80;;;;;;;;;;4968668;28;20295;-68
2023/03/21 05:43:39;;;;;;;7.38;5.25;;;;;;;;;;4974566;28;20098;-65
2023/03/21 05:46:05;;;;;;;6.68;5.18;;;;;;;;;;4972810;28;20133;-66
2023/03/21 05:48:30;;;;;;;6.30;4.75;;;;;;;;;;4957461;28;20064;-66
2023/03/21 05:50:55;;;;;;;7.30;4.78;;;;;;;;;;4974709;28;20103;-65
2023/03/21 05:53:21;;;;;;;6.40;4.73;;;;;;;;;;4971185;28;20433;-69
2023/03/21 05:55:46;;;;;;;7.37;5.40;;;;;;;;;;4973364;28;20433;-68
2023/03/21 05:58:11;;;;;;;6.65;4.80;;;;;;;;;;4966891;28;21725;-66
2023/03/21 06:00:37;;;;;;;6.43;4.57;;;;;;;;;;4940334;28;20052;-67
2023/03/21 06:03:02;;;;;;;6.20;4.78;;;;;;;;;;4950968;28;20068;-64
2023/03/21 06:05:27;;;;;;;6.10;4.60;;;;;;;;;;4954381;28;21874;-68
2023/03/21 06:07:52;;;;;;;7.03;4.73;;;;;;;;;;4935383;28;21650;-67
2023/03/21 06:10:18;;;;;;;6.20;5.03;;;;;;;;;;4972596;28;22728;-66
2023/03/21 06:12:43;;;;;;;6.30;4.82;;;;;;;;;;4972373;28;22423;-64
2023/03/21 06:15:08;;;;;;;6.37;4.03;;;;;;;;;;4959858;28;20160;-65
2023/03/21 06:17:34;;;;;;;6.20;4.22;;;;;;;;;;4941364;28;20894;-66
2023/03/21 06:20:03;;;;;;;7.37;5.10;;;;;;;;;;4959083;28;20041;-68
2023/03/21 06:22:29;;;;;;;5.85;4.55;;;;;;;;;;4960976;28;20333;-70
2023/03/21 06:24:54;;;;;;;6.65;4.55;;;;;;;;;;4959722;28;20049;-66
2023/03/21 06:27:19;;;;;;;6.63;4.72;;;;;;;;;;4952191;28;20049;-65
2023/03/21 06:29:45;;;;;;;5.75;4.70;;;;;;;;;;4921528;28;21927;-66
2023/03/21 06:32:10;;;;;;;6.47;4.30;;;;;;;;;;4952107;28;20468;-65
2023/03/21 06:34:36;;;;;;;7.35;4.22;;;;;;;;;;4925892;28;20041;-65
2023/03/21 06:37:02;;;;;;;7.60;4.57;;;;;;;;;;4967774;28;21206;-63
2023/03/21 06:39:28;;;;;;;7.30;5.00;;;;;;;;;;4954084;28;20251;-64
2023/03/21 06:41:53;;;;;;;7.05;4.50;;;;;;;;;;4955910;28;20083;-63
2023/03/21 06:44:20;;;;;;;6.13;4.80;;;;;;;;;;4976331;28;20036;-68
2023/03/21 06:46:46;;;;;;;5.82;4.53;;;;;;;;;;4961880;28;20337;-66
2023/03/21 06:49:11;;;;;;;5.60;4.40;;;;;;;;;;4962313;28;20797;-66
2023/03/21 06:51:36;;;;;;;5.53;4.20;;;;;;;;;;4956173;28;20393;-68
2023/03/21 06:54:01;;;;;;;5.03;4.03;;;;;;;;;;4971540;28;20041;-69
2023/03/21 06:56:27;;;;;;;11.43;4.57;;;;;;;;;;4969082;28;21429;-64
2023/03/21 06:58:52;;;;;;;6.95;4.70;;;;;;;;;;4939723;28;20386;-66
2023/03/21 07:01:17;;;;;;;5.32;4.18;;;;;;;;;;4965175;28;20709;-66
2023/03/21 07:03:43;;;;;;;7.60;4.65;;;;;;;;;;4971660;28;20052;-68
2023/03/21 07:06:10;;;;;;;6.22;4.43;;;;;;;;;;4936445;28;21186;-65
2023/03/21 07:08:36;;;;;;;6.18;4.20;;;;;;;;;;4953388;28;20056;-65
2023/03/21 07:11:01;;;;;;;6.22;4.20;;;;;;;;;;4948290;28;20041;-64
2023/03/21 07:13:27;;;;;;;5.68;3.85;;;;;;;;;;4930497;28;20060;-67
2023/03/21 07:15:53;;;;;;;7.07;4.65;;;;;;;;;;4966119;28;20110;-67
2023/03/21 07:18:18;;;;;;;6.30;4.55;;;;;;;;;;4960608;28;20068;-66
2023/03/21 07:20:46;;;;;;;6.63;4.30;;;;;;;;;;4951883;28;20694;-65
2023/03/21 07:23:12;;;;;;;5.32;3.83;;;;;;;;;;4948963;28;20786;-68
2023/03/21 07:25:38;;;;;;;5.43;4.07;;;;;;;;;;4969545;28;20129;-67
2023/03/21 07:28:07;;;;;;;5.18;3.90;;;;;;;;;;4948288;28;20797;-64
2023/03/21 07:30:33;;;;;;;5.82;4.30;;;;;;;;;;4952797;28;20114;-66
2023/03/21 07:32:58;;;;;;;6.97;4.38;;;;;;;;;;4968534;28;20144;-65
2023/03/21 07:35:24;;;;;;;6.50;4.40;;;;;;;;;;4951908;28;20053;-64
2023/03/21 07:37:49;;;;;;;5.40;4.20;;;;;;;;;;4952705;28;20045;-65
2023/03/21 07:40:15;;;;;;;6.43;4.00;;;;;;;;;;4966246;28;20037;-64
2023/03/21 07:42:40;;;;;;;6.00;4.20;;;;;;;;;;4952250;28;20127;-68
2023/03/21 07:45:06;;;;;;;6.28;4.60;;;;;;;;;;4948412;28;20917;-66
2023/03/21 07:47:31;;;;;;;5.55;4.07;;;;;;;;;;4969074;28;20055;-66
2023/03/21 07:49:57;;;;;;;4.93;3.78;;;;;;;;;;4951689;28;20505;-66
2023/03/21 07:52:22;;;;;;;5.25;4.00;;;;;;;;;;4952452;28;20773;-66
2023/03/21 07:54:47;;;;;;;4.93;3.70;;;;;;;;;;4968669;28;20738;-67
2023/03/21 07:57:13;;;;;;;5.27;4.00;;;;;;;;;;4968959;28;21995;-69
2023/03/21 07:59:38;;;;;;;5.65;4.15;;;;;;;;;;4964731;28;20558;-66
2023/03/21 08:02:03;;;;;;;4.67;3.40;;;;;;;;;;4967887;28;20045;-65
2023/03/21 08:04:28;;;;;;;4.68;3.55;;;;;;;;;;4933382;28;20068;-65
2023/03/21 08:06:54;;;;;;;5.27;3.60;;;;;;;;;;4967190;28;21648;-68
2023/03/21 08:09:19;;;;;;;5.47;3.90;;;;;;;;;;4966944;28;20322;-66
2023/03/21 08:11:44;;;;;;;5.65;3.80;;;;;;;;;;4967485;28;20353;-65
2023/03/21 08:14:09;;;;;;;5.37;3.47;;;;;;;;;;4966728;28;20371;-65
2023/03/21 08:16:35;;;;;;;4.80;3.77;;;;;;;;;;4928910;28;20675;-64
2023/03/21 08:19:00;;;;;;;4.70;3.72;;;;;;;;;;4968071;28;20384;-64
2023/03/21 08:21:26;;;;;;;8.90;4.17;;;;;;;;;;4963625;28;20064;-67
2023/03/21 08:23:51;;;;;;;5.45;3.85;;;;;;;;;;4965659;28;20291;-67
2023/03/21 08:26:18;;;;;;;4.72;3.60;;;;;;;;;;4957570;28;21639;-64
2023/03/21 08:28:43;;;;;;;6.15;4.15;;;;;;;;;;4966609;28;21498;-66
2023/03/21 08:31:09;;;;;;;6.15;4.05;;;;;;;;;;4961193;28;20764;-67
2023/03/21 08:33:35;;;;;;;5.60;3.53;;;;;;;;;;4942709;28;21252;-70
2023/03/21 08:36:00;;;;;;;4.20;3.50;;;;;;;;;;4957455;28;20049;-64
2023/03/21 08:38:28;;;;;;;5.85;3.80;;;;;;;;;;4968048;28;20048;-67
2023/03/21 08:40:54;;;;;;;4.47;3.72;;;;;;;;;;4971401;28;21133;-68
2023/03/21 08:43:19;;;;;;;5.40;3.90;;;;;;;;;;4966441;28;20037;-64
2023/03/21 08:45:44;;;;;;;5.25;3.97;;;;;;;;;;4971888;28;20511;-66
2023/03/21 08:48:10;;;;;;;4.38;3.50;;;;;;;;;;4954156;28;20521;-66
2023/03/21 08:50:35;;;;;;;4.50;3.65;;;;;;;;;;4956608;28;20041;-67
2023/03/21 08:53:00;;;;;;;4.90;3.73;;;;;;;;;;4975467;28;20451;-70
2023/03/21 08:55:26;;;;;;;5.25;4.13;;;;;;;;;;4974693;28;20315;-64
2023/03/21 08:57:51;;;;;;;4.97;3.78;;;;;;;;;;4950588;28;20805;-63
2023/03/21 09:00:17;;;;;;;4.50;3.78;;;;;;;;;;4967546;28;20604;-68
2023/03/21 09:02:43;;;;;;;4.78;3.65;;;;;;;;;;4945274;28;20532;-64
2023/03/21 09:05:10;;;;;;;4.75;3.67;;;;;;;;;;4928187;28;20035;-65
2023/03/21 09:07:37;;;;;;;5.90;3.67;;;;;;;;;;4963339;28;20723;-68
2023/03/21 09:10:05;;;;;;;4.78;3.78;;;;;;;;;;4952977;28;20141;-63
2023/03/21 09:12:31;;;;;;;4.55;3.65;;;;;;;;;;4971984;28;20122;-62
2023/03/21 09:14:56;;;;;;;4.57;3.53;;;;;;;;;;4951572;28;20198;-64
2023/03/21 09:17:21;;;;;;;5.20;3.50;;;;;;;;;;4958047;28;20615;-68
2023/03/21 09:19:49;;;;;;;4.25;3.50;;;;;;;;;;4949842;28;20877;-68
2023/03/21 09:22:16;;;;;;;5.07;3.70;;;;;;;;;;4968455;28;20033;-64
2023/03/21 09:24:46;;;;;;;5.10;3.80;;;;;;;;;;4966605;28;20044;-64
2023/03/21 09:27:12;;;;;;;4.80;3.78;;;;;;;;;;4951442;28;20044;-63
2023/03/21 09:29:38;;;;;;;4.97;3.85;;;;;;;;;;4973506;28;20037;-64
2023/03/21 09:32:05;;;;;;;5.70;3.60;;;;;;;;;;4952838;28;20541;-64
2023/03/21 09:34:30;;;;;;;4.18;2.97;;;;;;;;;;4950019;28;20053;-65
2023/03/21 09:36:56;;;;;;;4.33;3.83;;;;;;;;;;4954560;28;22401;-65
2023/03/21 09:39:22;;;;;;;4.45;3.40;;;;;;;;;;4960227;28;20315;-65
2023/03/21 09:41:47;;;;;;;4.85;3.90;;;;;;;;;;4972668;28;20045;-62
2023/03/21 09:44:32;;;;;;;4.70;3.50;;;;;;;;;;4976634;28;20098;-66
2023/03/21 09:46:57;;;;;;;3.90;3.17;;;;;;;;;;4956430;28;20189;-66
2023/03/21 09:49:37;;;;;;;5.43;3.63;;;;;;;;;;4970866;28;20805;-68
2023/03/21 09:52:11;;;;;;;5.82;3.38;;;;;;;;;;4966074;28;20136;-61
2023/03/21 09:54:38;;;;;;;4.78;3.35;;;;;;;;;;4937570;28;20824;-66
2023/03/21 09:57:08;;;;;;;4.20;3.42;;;;;;;;;;4950119;28;20154;-65
2023/03/21 09:59:39;;;;;;;5.00;3.42;;;;;;;;;;4963725;28;20786;-63
2023/03/21 10:02:32;;;;;;;5.10;3.80;;;;;;;;;;4956218;28;20127;-66
2023/03/21 10:04:59;;;;;;;4.35;3.45;;;;;;;;;;4972623;28;20064;-67
2023/03/21 10:07:27;;;;;;;4.85;3.47;;;;;;;;;;4954986;28;20052;-62
2023/03/21 10:09:52;;;;;;;4.88;3.45;;;;;;;;;;4957532;28;20241;-66
2023/03/21 10:12:20;;;;;;;5.38;3.53;;;;;;;;;;4978164;28;20568;-65
2023/03/21 10:14:49;;;;;;;4.63;3.47;;;;;;;;;;4958670;28;20186;-65
2023/03/21 10:17:17;;;;;;;5.70;3.60;;;;;;;;;;4958214;28;20044;-62
2023/03/21 10:19:45;;;;;;;4.13;3.20;;;;;;;;;;4975133;28;20055;-65
2023/03/21 10:22:10;;;;;;;4.05;3.33;;;;;;;;;;4974763;28;21112;-63
2023/03/21 10:24:35;;;;;;;4.13;3.13;;;;;;;;;;4975261;28;21393;-63
2023/03/21 10:27:01;;;;;;;4.83;3.40;;;;;;;;;;4975295;28;21784;-64
2023/03/21 10:29:27;;;;;;;5.05;3.60;;;;;;;;;;4974775;28;22166;-64
2023/03/21 10:31:53;;;;;;;5.20;3.58;;;;;;;;;;4968506;28;20040;-62
2023/03/21 10:34:19;;;;;;;5.07;3.45;;;;;;;;;;4950167;28;20866;-62
2023/03/21 10:36:44;;;;;;;4.10;3.55;;;;;;;;;;4971125;28;20202;-66
2023/03/21 10:39:22;;;;;;;4.70;3.60;;;;;;;;;;4973444;28;20094;-65
2023/03/21 10:41:47;;;;;;;5.78;3.90;;;;;;;;;;4973580;28;20602;-68
2023/03/21 10:44:13;;;;;;;4.95;3.47;;;;;;;;;;4974448;28;20045;-65
2023/03/21 10:46:48;;;;;;;4.00;3.25;;;;;;;;;;4955071;28;20041;-63
2023/03/21 10:49:14;;;;;;;4.43;3.40;;;;;;;;;;4934124;28;22058;-63
2023/03/21 10:51:39;;;;;;;5.30;3.70;;;;;;;;;;4935577;28;20596;-66
2023/03/21 10:54:06;;;;;;;3.55;3.00;;;;;;;;;;4927544;28;20534;-63
2023/03/21 10:56:35;;;;;;;4.38;3.28;;;;;;;;;;4923742;28;20080;-64
2023/03/21 10:59:00;;;;;;;5.60;3.45;;;;;;;;;;4940511;28;20048;-65
2023/03/21 11:01:45;;;;;;;5.03;3.58;;;;;;;;;;4950674;28;20053;-63
2023/03/21 11:04:14;;;;;;;5.00;3.38;;;;;;;;;;4968255;28;20052;-66
2023/03/21 11:06:40;;;;;;;5.80;3.60;;;;;;;;;;4971645;28;20049;-63
2023/03/21 11:09:07;;;;;;;4.55;3.50;;;;;;;;;;4947057;28;20769;-67
2023/03/21 11:11:52;;;;;;;4.78;3.20;;;;;;;;;;4972283;28;20057;-66
2023/03/21 11:14:41;;;;;;;4.07;3.17;;;;;;;;;;4971319;28;20073;-66
2023/03/21 11:17:07;;;;;;;5.68;3.53;;;;;;;;;;4949595;28;20043;-67
2023/03/21 11:19:32;;;;;;;3.83;3.08;;;;;;;;;;4973742;28;20202;-63
2023/03/21 11:21:58;;;;;;;4.40;3.38;;;;;;;;;;4970031;28;20033;-62
2023/03/21 11:24:24;;;;;;;4.07;3.35;;;;;;;;;;4948669;28;20477;-63
2023/03/21 11:26:50;;;;;;;4.30;3.22;;;;;;;;;;4964297;28;20037;-64
2023/03/21 11:29:19;;;;;;;3.55;2.90;;;;;;;;;;4971919;28;20427;-63
2023/03/21 11:31:44;;;;;;;3.55;3.20;;;;;;;;;;4953508;28;21451;-63
2023/03/21 11:34:19;;;;;;;4.23;3.00;;;;;;;;;;4949773;28;20545;-63
2023/03/21 11:36:44;;;;;;;4.20;3.15;;;;;;;;;;4965107;28;20376;-64
2023/03/21 11:39:10;;;;;;;4.20;3.33;;;;;;;;;;4949202;28;21943;-61
2023/03/21 11:41:35;;;;;;;3.45;2.83;;;;;;;;;;4950845;28;22434;-64
2023/03/21 11:44:01;;;;;;;3.50;2.92;;;;;;;;;;4966057;28;20072;-62
2023/03/21 11:46:27;;;;;;;4.30;3.13;;;;;;;;;;4966421;28;20757;-62
2023/03/21 11:48:52;;;;;;;4.70;3.50;;;;;;;;;;4951216;28;22607;-68
2023/03/21 11:51:17;;;;;;;3.83;2.70;;;;;;;;;;4949955;28;20041;-65
2023/03/21 11:54:03;;;;;;;4.53;3.20;;;;;;;;;;4966393;28;20653;-64
2023/03/21 11:56:31;;;;;;;3.97;3.20;;;;;;;;;;4947389;28;20456;-66
2023/03/21 11:59:03;;;;;;;5.07;3.28;;;;;;;;;;4963339;28;20148;-62
2023/03/21 12:01:28;;;;;;;3.72;2.90;;;;;;;;;;4962740;28;20069;-61
2023/03/21 12:03:56;;;;;;;4.00;3.13;;;;;;;;;;4969180;28;20048;-65
2023/03/21 12:06:27;;;;;;;4.47;3.10;;;;;;;;;;4959553;28;20948;-64
2023/03/21 12:08:52;;;;;;;3.90;3.10;;;;;;;;;;4942185;28;20588;-62
2023/03/21 12:11:24;;;;;;;3.33;2.85;;;;;;;;;;4960419;28;20033;-62
2023/03/21 12:13:53;;;;;;;4.95;3.42;;;;;;;;;;4963472;28;20037;-67
2023/03/21 12:16:27;;;;;;;3.30;2.75;;;;;;;;;;4949147;28;20200;-65
2023/03/21 12:18:52;;;;;;;4.13;2.92;;;;;;;;;;4962366;28;20040;-65
2023/03/21 12:21:18;;;;;;;4.43;2.97;;;;;;;;;;4964435;28;20052;-67
2023/03/21 12:23:50;;;;;;;4.80;3.30;;;;;;;;;;4964812;28;20059;-62
2023/03/21 12:26:26;;;;;;;4.38;3.05;;;;;;;;;;4952044;28;20314;-66
2023/03/21 12:29:17;;;;;;;3.72;2.85;;;;;;;;;;4967113;28;20072;-61
2023/03/21 12:31:59;;;;;;;3.83;2.95;;;;;;;;;;4963116;28;20033;-64
2023/03/21 12:34:24;;;;;;;3.33;2.65;;;;;;;;;;4945939;28;20799;-66
2023/03/21 12:36:56;;;;;;;4.13;2.80;;;;;;;;;;4971717;28;20533;-66
2023/03/21 12:39:24;;;;;;;4.05;3.22;;;;;;;;;;4951112;28;20056;-66
2023/03/21 12:41:53;;;;;;;3.53;2.90;;;;;;;;;;4969135;28;20041;-63
2023/03/21 12:44:19;;;;;;;4.60;3.00;;;;;;;;;;4970544;28;20048;-60
2023/03/21 12:47:01;;;;;;;3.40;2.80;;;;;;;;;;4962553;28;20091;-63
2023/03/21 12:49:38;;;;;;;3.55;2.90;;;;;;;;;;4946176;28;20179;-66
2023/03/21 12:52:09;;;;;;;3.53;3.00;;;;;;;;;;4969172;28;20152;-61
2023/03/21 12:54:46;;;;;;;3.15;2.40;;;;;;;;;;4929420;28;20080;-63
2023/03/21 12:57:30;;;;;;;3.72;2.78;;;;;;;;;;4947339;28;20776;-66
2023/03/21 12:59:58;;;;;;;3.20;2.70;;;;;;;;;;4967263;28;20578;-65
2023/03/21 13:02:30;;;;;;;3.53;2.80;;;;;;;;;;4952129;28;20126;-62
2023/03/21 13:05:16;;;;;;;3.50;2.88;;;;;;;;;;4949779;28;20061;-65
2023/03/21 13:07:41;;;;;;;4.40;3.30;;;;;;;;;;4966182;28;20143;-65
2023/03/21 13:10:13;;;;;;;3.25;2.70;;;;;;;;;;4961701;28;20025;-64
2023/03/21 13:12:38;;;;;;;4.03;2.95;;;;;;;;;;4967433;28;21670;-67
2023/03/21 13:15:11;;;;;;;3.92;3.15;;;;;;;;;;4969240;28;20040;-61
2023/03/21 13:17:57;;;;;;;3.83;2.90;;;;;;;;;;4964025;28;21213;-66
2023/03/21 13:20:28;;;;;;;3.88;2.65;;;;;;;;;;4947593;28;20043;-63
2023/03/21 13:22:53;;;;;;;3.55;2.75;;;;;;;;;;4950092;28;20447;-65
2023/03/21 13:25:20;;;;;;;3.38;2.55;;;;;;;;;;4959827;28;21194;-63
2023/03/21 13:27:52;;;;;;;3.40;2.70;;;;;;;;;;4966605;28;20223;-64
2023/03/21 13:30:27;;;;;;;3.92;2.90;;;;;;;;;;4942244;28;20056;-67
2023/03/21 13:33:03;;;;;;;3.10;2.70;;;;;;;;;;4920437;28;20244;-62
2023/03/21 13:35:39;;;;;;;3.45;2.53;;;;;;;;;;4913938;28;20341;-61
2023/03/21 13:38:15;;;;;;;3.75;2.88;;;;;;;;;;4936638;28;20703;-64
2023/03/21 13:40:42;;;;;;;3.55;2.70;;;;;;;;;;4951781;28;20037;-65
2023/03/21 13:43:27;;;;;;;2.88;2.45;;;;;;;;;;4950525;28;20976;-60
2023/03/21 13:45:52;;;;;;;3.55;2.70;;;;;;;;;;4954263;28;21557;-64
2023/03/21 13:48:25;;;;;;;3.75;2.53;;;;;;;;;;4947422;28;20120;-64
2023/03/21 13:50:51;;;;;;;3.50;2.60;;;;;;;;;;4932269;28;20747;-63
2023/03/21 13:53:21;;;;;;;3.25;2.40;;;;;;;;;;4955562;28;20080;-65
2023/03/21 13:55:48;;;;;;;3.80;2.53;;;;;;;;;;4932258;28;20064;-68
2023/03/21 13:58:40;;;;;;;3.00;2.70;;;;;;;;;;4932187;28;20041;-61
2023/03/21 14:01:11;;;;;;;4.43;2.90;;;;;;;;;;4922326;28;21167;-64
2023/03/21 14:03:38;;;;;;;3.40;2.80;;;;;;;;;;4953061;28;20056;-64
2023/03/21 14:06:03;;;;;;;3.22;2.53;;;;;;;;;;4931765;28;21669;-66
2023/03/21 14:08:30;;;;;;;3.85;2.97;;;;;;;;;;4936077;28;20501;-63
2023/03/21 14:10:56;;;;;;;3.03;2.53;;;;;;;;;;4948516;28;22263;-67
2023/03/21 14:13:23;;;;;;;2.97;2.38;;;;;;;;;;4936054;28;20786;-66
2023/03/21 14:15:52;;;;;;;3.13;2.55;;;;;;;;;;4954415;28;20337;-64
2023/03/21 14:18:18;;;;;;;2.60;2.35;;;;;;;;;;4945016;28;20702;-59
2023/03/21 14:20:44;;;;;;;2.85;2.45;;;;;;;;;;4954118;28;20454;-64
2023/03/21 14:23:12;;;;;;;3.83;2.75;;;;;;;;;;4952723;28;20044;-65
2023/03/21 14:25:38;;;;;;;3.60;2.65;;;;;;;;;;4956454;28;20049;-66
2023/03/21 14:28:04;;;;;;;3.17;2.67;;;;;;;;;;4918399;28;22470;-62
2023/03/21 14:30:34;;;;;;;3.03;2.40;;;;;;;;;;4939045;28;20961;-64
2023/03/21 14:33:20;;;;;;;3.25;2.47;;;;;;;;;;4936682;28;20561;-65
2023/03/21 14:35:46;;;;;;;3.53;2.58;;;;;;;;;;4945904;28;20061;-68
2023/03/21 14:38:25;;;;;;;2.95;2.50;;;;;;;;;;4935694;28;20037;-65
2023/03/21 14:40:51;;;;;;;3.80;2.53;;;;;;;;;;4937320;28;20140;-65
2023/03/21 14:43:17;;;;;;;3.10;2.58;;;;;;;;;;4937563;28;20418;-65
2023/03/21 14:45:42;;;;;;;3.13;2.80;;;;;;;;;;4953125;28;21236;-62
2023/03/21 14:48:11;;;;;;;3.05;2.55;;;;;;;;;;4949170;28;20068;-64